createdAt,value
2023-01-15T00:02:19.533Z,6.61
2023-01-15T00:05:11.101Z,6.49
2023-01-15T00:07:53.510Z,6.33
2023-01-15T00:10:43.042Z,6.32
2023-01-15T00:13:26.443Z,6.30
2023-01-15T00:16:18.119Z,6.03
2023-01-15T00:19:09.271Z,6.10
2023-01-15T00:21:58.081Z,6.20
2023-01-15T00:24:58.896Z,6.21
2023-01-15T00:27:48.209Z,6.12
2023-01-15T00:30:30.473Z,6.15
2023-01-15T00:33:19.169Z,6.17
2023-01-15T00:36:01.518Z,6.09
2023-01-15T00:38:50.086Z,6.15
2023-01-15T00:41:38.480Z,6.04
2023-01-15T00:44:20.094Z,6.03
2023-01-15T00:47:02.446Z,6.06
2023-01-15T00:49:51.068Z,6.02
2023-01-15T00:52:33.662Z,5.95
2023-01-15T00:55:23.200Z,5.90
2023-01-15T00:58:12.151Z,5.81
2023-01-15T01:00:54.474Z,5.84
2023-01-15T01:03:43.188Z,5.89
2023-01-15T01:06:25.562Z,5.88
2023-01-15T01:09:14.122Z,5.89
2023-01-15T01:12:05.030Z,5.91
2023-01-15T01:14:47.327Z,5.86
2023-01-15T01:17:36.151Z,5.78
2023-01-15T01:20:20.060Z,5.64
2023-01-15T01:23:09.113Z,5.57
2023-01-15T01:25:51.448Z,5.69
2023-01-15T01:28:40.181Z,5.81
2023-01-15T01:31:23.236Z,5.76
2023-01-15T01:34:14.227Z,5.79
2023-01-15T01:37:04.163Z,5.78
2023-01-15T01:39:46.434Z,5.73
2023-01-15T01:42:35.038Z,6.04
2023-01-15T01:45:41.050Z,5.75
2023-01-15T01:48:30.141Z,5.80
2023-01-15T01:51:19.159Z,5.98
2023-01-15T01:54:03.234Z,5.94
2023-01-15T01:56:52.283Z,6.05
2023-01-15T01:59:41.466Z,5.95
2023-01-15T02:02:28.209Z,5.85
2023-01-15T02:05:18.245Z,5.86
2023-01-15T02:08:03.182Z,6.12
2023-01-15T02:10:54.641Z,6.00
2023-01-15T02:14:00.137Z,6.01
2023-01-15T02:17:11.377Z,5.81
2023-01-15T02:20:19.131Z,5.82
2023-01-15T02:23:43.147Z,6.11
2023-01-15T02:26:46.964Z,5.96
2023-01-15T02:29:47.039Z,5.84
2023-01-15T02:32:51.387Z,5.93
2023-01-15T02:35:43.034Z,5.96
2023-01-15T02:38:34.533Z,6.28
2023-01-15T02:41:33.132Z,6.19
2023-01-15T02:44:28.408Z,6.47
2023-01-15T02:47:13.030Z,6.67
2023-01-15T02:49:59.126Z,6.67
2023-01-15T02:53:02.087Z,6.83
2023-01-15T02:55:56.440Z,7.04
2023-01-15T02:58:48.125Z,7.13
2023-01-15T03:01:38.321Z,7.12
2023-01-15T03:04:56.084Z,7.32
2023-01-15T03:07:59.497Z,7.32
2023-01-15T03:10:53.037Z,7.45
2023-01-15T03:13:48.057Z,7.45
2023-01-15T03:16:52.094Z,7.67
2023-01-15T03:19:43.220Z,7.83
2023-01-15T03:22:38.249Z,7.91
2023-01-15T03:25:34.694Z,8.04
2023-01-15T03:28:20.061Z,8.43
2023-01-15T03:31:09.441Z,9.46
2023-01-15T03:33:52.086Z,10.43
2023-01-15T03:36:42.442Z,11.05
2023-01-15T03:39:27.124Z,11.49
2023-01-15T03:42:55.059Z,12.02
2023-01-15T03:45:48.190Z,12.67
2023-01-15T03:48:52.347Z,13.22
2023-01-15T03:51:58.118Z,13.78
2023-01-15T03:54:46.574Z,13.97
2023-01-15T03:58:01.149Z,14.32
2023-01-15T04:00:53.560Z,14.50
2023-01-15T04:03:44.099Z,14.62
2023-01-15T04:06:30.548Z,15.43
2023-01-15T04:09:22.024Z,16.41
2023-01-15T04:12:14.992Z,15.94
2023-01-15T04:14:57.296Z,16.82
2023-01-15T04:17:46.021Z,16.65
2023-01-15T04:20:36.341Z,17.04
2023-01-15T04:23:20.103Z,17.44
2023-01-15T04:26:08.845Z,17.18
2023-01-15T04:28:52.007Z,17.08
2023-01-15T04:31:34.628Z,17.76
2023-01-15T04:34:22.944Z,18.06
2023-01-15T04:37:05.481Z,18.34
2023-01-15T04:39:53.975Z,17.48
2023-01-15T04:43:01.712Z,17.42
2023-01-15T04:45:44.029Z,17.55
2023-01-15T04:48:26.955Z,17.41
2023-01-15T04:51:20.140Z,17.46
2023-01-15T04:54:12.103Z,18.27
2023-01-15T04:56:57.401Z,17.93
2023-01-15T04:59:46.171Z,17.92
2023-01-15T05:02:28.451Z,18.53
2023-01-15T05:05:17.016Z,18.18
2023-01-15T05:08:06.152Z,17.19
2023-01-15T05:10:54.592Z,16.98
2023-01-15T05:13:38.203Z,17.06
2023-01-15T05:16:30.958Z,17.47
2023-01-15T05:19:17.127Z,17.38
2023-01-15T05:22:08.109Z,16.82
2023-01-15T05:24:58.137Z,17.30
2023-01-15T05:27:41.908Z,17.56
2023-01-15T05:30:31.120Z,17.27
2023-01-15T05:33:19.457Z,16.87
2023-01-15T05:36:02.102Z,16.78
2023-01-15T05:38:50.437Z,17.04
2023-01-15T05:41:51.227Z,16.56
2023-01-15T05:44:40.408Z,17.19
2023-01-15T05:47:23.070Z,16.89
2023-01-15T05:50:12.456Z,17.21
2023-01-15T05:52:55.062Z,17.42
2023-01-15T05:55:37.315Z,17.66
2023-01-15T05:58:25.979Z,17.81
2023-01-15T06:01:17.078Z,17.87
2023-01-15T06:03:59.467Z,18.04
2023-01-15T06:06:49.094Z,18.03
2023-01-15T06:09:39.098Z,18.64
2023-01-15T06:12:27.435Z,18.67
2023-01-15T06:15:09.015Z,18.70
2023-01-15T06:17:59.154Z,18.29
2023-01-15T06:20:44.450Z,18.51
2023-01-15T06:23:33.019Z,18.09
2023-01-15T06:26:21.391Z,18.70
2023-01-15T06:29:10.166Z,18.62
2023-01-15T06:31:52.342Z,18.14
2023-01-15T06:34:41.114Z,18.45
2023-01-15T06:37:23.307Z,18.13
2023-01-15T06:40:12.088Z,17.79
2023-01-15T06:43:26.014Z,18.41
2023-01-15T06:46:36.105Z,18.49
2023-01-15T06:49:18.424Z,18.50
2023-01-15T06:52:07.038Z,18.54
2023-01-15T06:54:52.747Z,18.01
2023-01-15T06:57:41.995Z,17.98
2023-01-15T07:00:24.442Z,17.91
2023-01-15T07:03:14.057Z,18.05
2023-01-15T07:05:56.573Z,17.91
2023-01-15T07:08:44.959Z,17.49
2023-01-15T07:11:27.422Z,17.92
2023-01-15T07:14:15.947Z,17.53
2023-01-15T07:17:00.413Z,17.84
2023-01-15T07:19:48.984Z,16.93
2023-01-15T07:22:31.441Z,17.78
2023-01-15T07:25:20.372Z,17.76
2023-01-15T07:28:02.696Z,17.90
2023-01-15T07:30:51.417Z,17.91
2023-01-15T07:33:33.466Z,17.64
2023-01-15T07:36:22.026Z,17.31
2023-01-15T07:39:04.428Z,17.44
2023-01-15T07:42:11.118Z,17.74
2023-01-15T07:45:12.898Z,17.82
2023-01-15T07:48:21.101Z,17.86
2023-01-15T07:51:03.451Z,17.82
2023-01-15T07:53:52.093Z,17.71
2023-01-15T07:56:34.398Z,17.99
2023-01-15T07:59:23.112Z,17.66
2023-01-15T08:02:05.362Z,17.73
2023-01-15T08:04:56.037Z,17.97
2023-01-15T08:07:44.985Z,18.00
2023-01-15T08:10:27.306Z,17.95
2023-01-15T08:13:33.990Z,17.83
2023-01-15T08:16:16.589Z,17.75
2023-01-15T08:19:05.114Z,17.80
2023-01-15T08:21:47.241Z,17.32
2023-01-15T08:24:36.027Z,17.66
2023-01-15T08:27:25.412Z,17.99
2023-01-15T08:30:07.035Z,17.90
2023-01-15T08:32:56.536Z,17.66
2023-01-15T08:35:39.090Z,17.33
2023-01-15T08:38:27.331Z,17.47
2023-01-15T08:41:21.981Z,17.62
2023-01-15T08:44:04.596Z,17.63
2023-01-15T08:46:53.030Z,17.43
2023-01-15T08:49:35.237Z,17.43
2023-01-15T08:52:24.089Z,17.37
2023-01-15T08:55:14.001Z,17.45
2023-01-15T08:58:03.050Z,17.49
2023-01-15T09:00:45.793Z,17.41
2023-01-15T09:03:35.115Z,17.48
2023-01-15T09:06:23.380Z,17.40
2023-01-15T09:09:08.135Z,17.41
2023-01-15T09:11:50.323Z,17.30
2023-01-15T09:14:59.505Z,17.23
2023-01-15T09:17:42.052Z,17.17
2023-01-15T09:20:31.922Z,17.20
2023-01-15T09:23:22.342Z,17.25
2023-01-15T09:26:07.106Z,17.17
2023-01-15T09:28:55.741Z,17.25
2023-01-15T09:31:39.529Z,17.02
2023-01-15T09:34:21.286Z,17.02
2023-01-15T09:37:10.080Z,16.98
2023-01-15T09:39:51.922Z,17.11
2023-01-15T09:43:17.141Z,17.11
2023-01-15T09:46:14.864Z,16.96
2023-01-15T09:49:40.094Z,16.90
2023-01-15T09:52:51.016Z,16.79
2023-01-15T09:55:50.177Z,16.79
2023-01-15T09:58:47.404Z,16.89
2023-01-15T10:01:36.989Z,16.80
2023-01-15T10:04:45.324Z,16.87
2023-01-15T10:07:36.091Z,16.73
2023-01-15T10:10:24.296Z,16.76
2023-01-15T10:13:22.031Z,16.77
2023-01-15T10:16:11.332Z,16.69
2023-01-15T10:18:54.189Z,16.74
2023-01-15T10:21:55.480Z,16.72
2023-01-15T10:24:54.137Z,16.60
2023-01-15T10:27:37.666Z,16.47
2023-01-15T10:30:45.156Z,16.56
2023-01-15T10:34:01.456Z,16.57
2023-01-15T10:37:01.974Z,16.54
2023-01-15T10:40:13.516Z,16.49
2023-01-15T10:43:33.126Z,16.38
2023-01-15T10:46:40.074Z,16.39
2023-01-15T10:49:29.117Z,16.45
2023-01-15T10:52:21.493Z,16.31
2023-01-15T10:55:39.914Z,16.33
2023-01-15T10:58:48.005Z,16.35
2023-01-15T11:01:36.977Z,16.18
2023-01-15T11:04:20.336Z,16.13
2023-01-15T11:07:10.959Z,15.99
2023-01-15T11:09:53.506Z,15.96
2023-01-15T11:13:01.968Z,15.92
2023-01-15T11:16:02.679Z,15.96
2023-01-15T11:19:12.087Z,15.84
2023-01-15T11:21:55.332Z,15.83
2023-01-15T11:25:01.072Z,15.79
2023-01-15T11:27:51.966Z,15.81
2023-01-15T11:30:46.146Z,15.65
2023-01-15T11:33:33.347Z,15.62
2023-01-15T11:36:31.926Z,15.46
2023-01-15T11:39:29.207Z,15.40
2023-01-15T11:42:42.976Z,15.53
2023-01-15T11:45:54.961Z,15.49
2023-01-15T11:49:14.094Z,15.46
2023-01-15T11:52:04.059Z,15.39
2023-01-15T11:54:57.417Z,15.48
2023-01-15T11:57:43.049Z,15.42
2023-01-15T12:00:38.399Z,15.41
2023-01-15T12:03:27.094Z,15.21
2023-01-15T12:06:20.354Z,15.31
2023-01-15T12:09:25.015Z,15.20
2023-01-15T12:12:25.450Z,15.12
2023-01-15T12:15:27.010Z,14.99
2023-01-15T12:18:34.099Z,14.78
2023-01-15T12:21:50.422Z,14.52
2023-01-15T12:24:53.107Z,14.41
2023-01-15T12:27:55.314Z,14.36
2023-01-15T12:31:05.135Z,14.10
2023-01-15T12:34:03.056Z,14.08
2023-01-15T12:36:58.627Z,13.63
2023-01-15T12:39:55.944Z,13.62
2023-01-15T12:43:10.064Z,13.35
2023-01-15T12:46:05.076Z,13.14
2023-01-15T12:49:05.018Z,12.95
2023-01-15T12:52:08.290Z,12.70
2023-01-15T12:55:14.039Z,12.60
2023-01-15T12:58:01.105Z,12.45
2023-01-15T13:00:56.044Z,12.52
2023-01-15T13:03:57.148Z,12.51
2023-01-15T13:06:41.491Z,12.58
2023-01-15T13:09:52.982Z,12.69
2023-01-15T13:12:38.371Z,12.50
2023-01-15T13:15:33.970Z,12.39
2023-01-15T13:18:44.016Z,12.63
2023-01-15T13:21:28.235Z,12.48
2023-01-15T13:24:31.113Z,12.59
2023-01-15T13:27:45.641Z,12.39
2023-01-15T13:31:05.012Z,12.36
2023-01-15T13:34:01.371Z,12.18
2023-01-15T13:36:52.016Z,11.92
2023-01-15T13:39:51.391Z,11.65
2023-01-15T13:42:46.009Z,11.74
2023-01-15T13:45:34.383Z,11.53
2023-01-15T13:48:32.025Z,11.53
2023-01-15T13:51:44.326Z,11.41
2023-01-15T13:54:29.917Z,11.47
2023-01-15T13:57:34.099Z,11.20
2023-01-15T14:00:41.011Z,11.23
2023-01-15T14:04:07.434Z,11.05
2023-01-15T14:07:07.832Z,11.00
2023-01-15T14:09:50.494Z,11.07
2023-01-15T14:13:07.785Z,11.20
2023-01-15T14:15:56.380Z,11.04
2023-01-15T14:18:52.979Z,10.96
2023-01-15T14:22:13.341Z,11.16
2023-01-15T14:25:11.980Z,11.19
2023-01-15T14:28:23.463Z,11.20
2023-01-15T14:31:30.074Z,11.00
2023-01-15T14:34:33.066Z,10.98
2023-01-15T14:37:21.306Z,10.94
2023-01-15T14:40:12.894Z,10.77
2023-01-15T14:43:13.921Z,10.78
2023-01-15T14:45:57.137Z,10.90
2023-01-15T14:48:46.007Z,10.72
2023-01-15T14:51:31.941Z,10.62
2023-01-15T14:54:26.037Z,10.64
2023-01-15T14:57:10.806Z,10.40
2023-01-15T15:00:12.975Z,10.28
2023-01-15T15:03:02.008Z,10.48
2023-01-15T15:05:52.022Z,10.60
2023-01-15T15:08:43.305Z,10.39
2023-01-15T15:11:55.087Z,10.24
2023-01-15T15:14:48.734Z,10.16
2023-01-15T15:17:53.035Z,10.12
2023-01-15T15:20:56.273Z,10.33
2023-01-15T15:23:57.030Z,10.24
2023-01-15T15:26:40.846Z,10.24
2023-01-15T15:29:32.004Z,10.21
2023-01-15T15:32:28.336Z,10.06
2023-01-15T15:35:10.049Z,10.08
2023-01-15T15:37:52.541Z,10.10
2023-01-15T15:40:49.042Z,9.84
2023-01-15T15:44:25.945Z,9.72
2023-01-15T15:47:39.841Z,10.27
2023-01-15T15:50:43.850Z,9.84
2023-01-15T15:53:25.876Z,9.79
2023-01-15T15:56:15.951Z,9.74
2023-01-15T15:59:00.527Z,9.73
2023-01-15T16:01:53.159Z,9.86
2023-01-15T16:04:41.840Z,9.65
2023-01-15T16:07:41.834Z,9.90
2023-01-15T16:10:30.738Z,9.62
2023-01-15T16:13:26.038Z,9.58
2023-01-15T16:16:10.254Z,9.63
2023-01-15T16:19:02.856Z,9.51
2023-01-15T16:21:46.241Z,9.47
2023-01-15T16:24:40.851Z,9.39
2023-01-15T16:27:26.394Z,9.47
2023-01-15T16:30:14.938Z,9.34
2023-01-15T16:33:09.756Z,9.25
2023-01-15T16:35:51.895Z,9.44
2023-01-15T16:38:47.312Z,9.26
2023-01-15T16:41:37.046Z,9.25
2023-01-15T16:44:45.211Z,9.44
2023-01-15T16:47:36.907Z,9.33
2023-01-15T16:50:32.457Z,9.27
2023-01-15T16:53:34.931Z,9.16
2023-01-15T16:56:44.482Z,9.31
2023-01-15T16:59:28.069Z,9.29
2023-01-15T17:02:30.789Z,9.18
2023-01-15T17:05:28.995Z,9.21
2023-01-15T17:08:33.671Z,9.23
2023-01-15T17:11:37.972Z,9.33
2023-01-15T17:14:26.334Z,9.47
2023-01-15T17:17:33.868Z,9.36
2023-01-15T17:20:19.140Z,9.21
2023-01-15T17:23:08.955Z,9.31
2023-01-15T17:25:57.411Z,9.21
2023-01-15T17:28:40.087Z,9.23
2023-01-15T17:31:34.358Z,9.16
2023-01-15T17:34:19.265Z,9.00
2023-01-15T17:37:08.428Z,9.21
2023-01-15T17:39:51.132Z,9.11
2023-01-15T17:42:45.794Z,9.18
2023-01-15T17:45:37.934Z,9.28
2023-01-15T17:48:20.202Z,9.14
2023-01-15T17:51:10.030Z,9.14
2023-01-15T17:53:52.274Z,8.91
2023-01-15T17:56:58.972Z,8.99
2023-01-15T17:59:59.827Z,9.11
2023-01-15T18:03:27.016Z,9.15
2023-01-15T18:06:09.424Z,8.86
2023-01-15T18:09:05.044Z,8.89
2023-01-15T18:11:47.686Z,8.80
2023-01-15T18:14:37.094Z,8.71
2023-01-15T18:17:19.475Z,8.70
2023-01-15T18:20:08.104Z,8.62
2023-01-15T18:22:50.352Z,8.55
2023-01-15T18:25:39.089Z,8.72
2023-01-15T18:28:22.380Z,8.55
2023-01-15T18:31:11.925Z,8.62
2023-01-15T18:34:00.997Z,8.73
2023-01-15T18:36:50.365Z,8.64
2023-01-15T18:39:32.984Z,8.80
2023-01-15T18:42:47.033Z,8.79
2023-01-15T18:45:47.349Z,8.63
2023-01-15T18:48:35.837Z,8.67
2023-01-15T18:51:24.990Z,8.72
2023-01-15T18:54:07.458Z,8.47
2023-01-15T18:56:56.003Z,8.57
2023-01-15T18:59:38.321Z,8.46
2023-01-15T19:02:29.035Z,8.51
2023-01-15T19:05:14.375Z,8.33
2023-01-15T19:08:02.960Z,8.48
2023-01-15T19:10:52.157Z,8.44
2023-01-15T19:13:40.543Z,8.31
2023-01-15T19:16:41.942Z,8.41
2023-01-15T19:19:30.426Z,8.28
2023-01-15T19:22:31.101Z,8.04
2023-01-15T19:25:21.737Z,8.12
2023-01-15T19:28:05.969Z,8.09
2023-01-15T19:31:21.734Z,8.26
2023-01-15T19:34:32.591Z,8.35
2023-01-15T19:37:21.534Z,8.26
2023-01-15T19:40:03.018Z,8.30
2023-01-15T19:43:16.829Z,8.40
2023-01-15T19:46:23.904Z,8.34
2023-01-15T19:49:31.984Z,8.27
2023-01-15T19:52:38.800Z,8.35
2023-01-15T19:55:22.432Z,8.07
2023-01-15T19:58:13.849Z,7.94
2023-01-15T20:00:57.484Z,7.88
2023-01-15T20:03:45.805Z,7.97
2023-01-15T20:06:28.329Z,8.07
2023-01-15T20:09:16.934Z,7.88
2023-01-15T20:12:17.910Z,7.67
2023-01-15T20:15:07.031Z,7.71
2023-01-15T20:17:49.195Z,7.94
2023-01-15T20:20:37.846Z,7.88
2023-01-15T20:23:26.799Z,8.01
2023-01-15T20:26:11.672Z,8.18
2023-01-15T20:29:00.899Z,7.88
2023-01-15T20:31:49.293Z,7.84
2023-01-15T20:34:30.785Z,7.93
2023-01-15T20:37:13.041Z,7.81
2023-01-15T20:40:01.931Z,7.90
2023-01-15T20:43:15.766Z,7.94
2023-01-15T20:46:18.832Z,7.96
2023-01-15T20:49:19.681Z,7.83
2023-01-15T20:52:08.959Z,7.74
2023-01-15T20:54:51.588Z,7.67
2023-01-15T20:57:45.877Z,7.68
2023-01-15T21:00:29.316Z,7.39
2023-01-15T21:03:20.113Z,7.37
2023-01-15T21:06:06.027Z,7.27
2023-01-15T21:08:54.858Z,7.22
2023-01-15T21:11:37.235Z,7.18
2023-01-15T21:14:25.934Z,7.39
2023-01-15T21:17:08.288Z,7.21
2023-01-15T21:19:56.832Z,7.15
2023-01-15T21:22:39.227Z,7.36
2023-01-15T21:25:27.920Z,7.37
2023-01-15T21:28:10.298Z,7.39
2023-01-15T21:30:58.855Z,7.13
2023-01-15T21:33:41.374Z,7.08
2023-01-15T21:36:30.032Z,7.19
2023-01-15T21:39:12.188Z,7.06
2023-01-15T21:42:18.928Z,7.15
2023-01-15T21:45:14.780Z,6.97
2023-01-15T21:48:03.923Z,7.04
2023-01-15T21:50:46.263Z,7.02
2023-01-15T21:53:34.998Z,7.04
2023-01-15T21:56:17.342Z,7.10
2023-01-15T21:59:05.975Z,6.96
2023-01-15T22:01:55.911Z,6.96
2023-01-15T22:04:44.865Z,6.90
2023-01-15T22:07:27.205Z,6.80
2023-01-15T22:10:15.964Z,6.96
2023-01-15T22:13:04.841Z,6.98
2023-01-15T22:16:01.916Z,6.64
2023-01-15T22:18:44.115Z,6.57
2023-01-15T22:21:32.914Z,6.49
2023-01-15T22:24:21.819Z,6.47
2023-01-15T22:27:13.945Z,6.75
2023-01-15T22:29:56.140Z,6.58
2023-01-15T22:32:44.942Z,6.36
2023-01-15T22:35:27.990Z,6.31
2023-01-15T22:38:16.901Z,6.48
2023-01-15T22:41:05.901Z,6.62
2023-01-15T22:43:54.855Z,6.44
2023-01-15T22:46:37.177Z,6.64
2023-01-15T22:49:25.769Z,6.71
2023-01-15T22:52:14.971Z,6.56
2023-01-15T22:55:04.184Z,6.23
2023-01-15T22:57:45.913Z,6.27
2023-01-15T23:00:34.198Z,6.26
2023-01-15T23:03:16.950Z,5.97
2023-01-15T23:06:10.175Z,6.09
2023-01-15T23:08:52.808Z,6.13
2023-01-15T23:11:35.462Z,6.08
2023-01-15T23:14:25.793Z,6.17
2023-01-15T23:17:08.077Z,5.94
2023-01-15T23:19:56.794Z,6.06
2023-01-15T23:22:39.300Z,5.87
2023-01-15T23:25:27.851Z,6.06
2023-01-15T23:28:10.272Z,6.24
2023-01-15T23:30:58.809Z,6.17
2023-01-15T23:33:41.092Z,6.07
2023-01-15T23:36:30.891Z,6.18
2023-01-15T23:39:25.916Z,5.88
2023-01-15T23:42:26.518Z,5.95
2023-01-15T23:45:33.800Z,5.81
2023-01-15T23:48:22.835Z,5.62
2023-01-15T23:51:11.925Z,5.65
2023-01-15T23:53:54.111Z,5.90
2023-01-15T23:56:44.825Z,5.85
2023-01-15T23:59:28.069Z,5.58
